Time;durP1;ratioP1;P1;durP2;ratioP2;P2;SDS_P1;SDS_P2;PMS_P1;PMS_P2;Temp;Humidity;BMP_temperature;BMP_pressure;BME280_temperature;BME280_humidity;BME280_pressure;Samples;Min_cycle;Max_cycle;Signal;HPM_P1;HPM_P2
2023/05/07 00:00:59;;;;;;;14.27;11.00;;;;;;;11.47;67.05;98646.03;5010656;28;20018;-69
2023/05/07 00:03:26;;;;;;;14.93;11.25;;;;;;;11.45;66.46;98651.00;5011250;28;20037;-68
2023/05/07 00:05:52;;;;;;;12.98;10.63;;;;;;;11.44;67.39;98654.88;5009751;28;20132;-68
2023/05/07 00:08:18;;;;;;;12.98;9.88;;;;;;;11.41;66.99;98655.47;5005744;28;20042;-70
2023/05/07 00:10:44;;;;;;;12.77;10.52;;;;;;;11.38;67.24;98650.56;5009746;28;20029;-68
2023/05/07 00:13:11;;;;;;;16.48;10.45;;;;;;;11.34;66.79;98653.09;4992441;28;20030;-70
2023/05/07 00:15:36;;;;;;;14.35;10.02;;;;;;;11.29;67.36;98655.91;5009952;28;20045;-69
2023/05/07 00:18:02;;;;;;;13.52;10.30;;;;;;;11.25;66.83;98654.84;4992115;28;20084;-69
2023/05/07 00:20:27;;;;;;;12.90;9.82;;;;;;;11.20;67.07;98658.50;5019277;28;20034;-70
2023/05/07 00:22:53;;;;;;;14.85;10.60;;;;;;;11.23;66.85;98659.81;5010313;28;20065;-70
2023/05/07 00:25:19;;;;;;;13.27;9.77;;;;;;;11.24;67.46;98661.47;5013873;28;20041;-69
2023/05/07 00:27:45;;;;;;;13.02;9.65;;;;;;;11.21;67.72;98665.59;5019743;28;20022;-69
2023/05/07 00:30:11;;;;;;;15.57;10.02;;;;;;;11.19;67.20;98665.09;5009749;28;20570;-69
2023/05/07 00:32:36;;;;;;;14.77;10.07;;;;;;;11.18;67.00;98668.97;4992024;28;20112;-69
2023/05/07 00:35:03;;;;;;;14.85;10.45;;;;;;;11.16;67.42;98662.94;5010454;28;20121;-69
2023/05/07 00:37:28;;;;;;;12.73;9.30;;;;;;;11.16;66.90;98669.25;5009544;28;20033;-70
2023/05/07 00:39:54;;;;;;;13.65;10.10;;;;;;;11.19;67.32;98673.34;5009522;28;20026;-69
2023/05/07 00:42:19;;;;;;;13.48;9.88;;;;;;;11.21;67.36;98671.09;5018796;28;20383;-69
2023/05/07 00:44:45;;;;;;;11.35;9.13;;;;;;;11.22;67.02;98667.22;5009329;28;20022;-70
2023/05/07 00:47:11;;;;;;;14.18;9.13;;;;;;;11.24;67.50;98667.75;5009850;28;20495;-69
2023/05/07 00:49:41;;;;;;;11.18;7.95;;;;;;;11.26;67.05;98671.03;5011222;28;20025;-69
2023/05/07 00:52:14;;;;;;;11.80;8.98;;;;;;;11.28;67.37;98668.00;5008939;28;20030;-69
2023/05/07 00:54:41;;;;;;;11.18;8.32;;;;;;;11.26;67.25;98668.28;5009343;28;20026;-69
2023/05/07 00:57:06;;;;;;;11.40;8.30;;;;;;;11.23;66.89;98663.38;5009574;28;20029;-69
2023/05/07 00:59:32;;;;;;;10.02;7.60;;;;;;;11.24;67.56;98665.00;5019553;28;20038;-69
2023/05/07 01:01:58;;;;;;;10.82;7.90;;;;;;;11.25;67.30;98677.63;5009189;28;20498;-68
2023/05/07 01:04:24;;;;;;;9.05;7.05;;;;;;;11.26;67.72;98670.22;5009315;28;20408;-69
2023/05/07 01:06:51;;;;;;;10.68;7.40;;;;;;;11.20;66.89;98674.97;5009296;28;20052;-69
2023/05/07 01:09:19;;;;;;;10.18;7.40;;;;;;;11.20;67.31;98674.97;5010927;28;20391;-69
2023/05/07 01:11:45;;;;;;;8.57;6.35;;;;;;;11.20;67.19;98674.16;5009029;28;20482;-69
2023/05/07 01:14:11;;;;;;;8.23;5.82;;;;;;;11.16;67.09;98677.47;5016148;28;20101;-69
2023/05/07 01:16:37;;;;;;;8.20;6.07;;;;;;;11.13;66.88;98678.06;5008971;28;20014;-70
2023/05/07 01:19:03;;;;;;;7.78;5.75;;;;;;;11.10;66.67;98678.66;5008988;28;20033;-69
2023/05/07 01:21:32;;;;;;;7.00;4.88;;;;;;;11.09;66.74;98674.28;5009438;28;20030;-69
2023/05/07 01:23:58;;;;;;;7.15;5.15;;;;;;;11.07;67.05;98675.69;4991355;28;20026;-70
2023/05/07 01:26:24;;;;;;;6.70;5.20;;;;;;;11.03;67.25;98680.94;5013493;28;20040;-70
2023/05/07 01:28:50;;;;;;;7.50;5.63;;;;;;;11.01;66.76;98677.66;5008872;28;20049;-69
2023/05/07 01:31:17;;;;;;;8.43;5.32;;;;;;;10.98;67.01;98676.34;5032388;28;20405;-69
2023/05/07 01:33:45;;;;;;;6.35;5.05;;;;;;;10.98;66.75;98678.28;5011516;28;20601;-69
2023/05/07 01:36:13;;;;;;;9.23;5.95;;;;;;;10.96;66.93;98675.81;5009084;28;20103;-69
2023/05/07 01:38:40;;;;;;;7.60;5.15;;;;;;;10.97;67.25;98671.97;5008654;28;20026;-68
2023/05/07 01:41:06;;;;;;;7.55;5.50;;;;;;;10.96;67.26;98672.25;5008593;28;20159;-69
2023/05/07 01:43:32;;;;;;;8.30;6.30;;;;;;;10.97;66.79;98671.16;5008732;28;20033;-69
2023/05/07 01:45:58;;;;;;;7.32;4.93;;;;;;;10.97;67.76;98679.38;5008569;28;20392;-70
2023/05/07 01:48:24;;;;;;;7.18;5.28;;;;;;;10.95;67.30;98681.59;5011693;28;20187;-70
2023/05/07 01:50:51;;;;;;;8.35;5.38;;;;;;;10.84;66.82;98665.25;5029234;28;20026;-69
2023/05/07 01:53:16;;;;;;;7.75;5.22;;;;;;;10.80;67.07;98668.91;5005796;28;20133;-69
2023/05/07 01:55:41;;;;;;;7.53;5.72;;;;;;;10.79;67.03;98664.50;5008062;28;20113;-69
2023/05/07 01:58:07;;;;;;;8.68;5.57;;;;;;;10.80;67.36;98671.63;5008141;28;20051;-69
2023/05/07 02:00:32;;;;;;;7.18;5.32;;;;;;;10.80;66.93;98671.63;5008497;28;20487;-69
2023/05/07 02:02:58;;;;;;;5.72;4.93;;;;;;;10.78;67.09;98674.66;5020364;28;20161;-69
2023/05/07 02:05:23;;;;;;;7.00;5.57;;;;;;;10.77;67.23;98670.28;5013722;28;20038;-70
2023/05/07 02:07:49;;;;;;;7.13;5.60;;;;;;;10.75;67.00;98674.44;5011773;28;20030;-69
2023/05/07 02:10:14;;;;;;;9.18;5.88;;;;;;;10.75;67.24;98675.25;5011769;28;20030;-68
2023/05/07 02:12:39;;;;;;;8.75;6.28;;;;;;;10.75;67.58;98679.91;5025085;28;20117;-69
2023/05/07 02:15:05;;;;;;;8.60;6.15;;;;;;;10.71;67.39;98666.78;5013379;28;20076;-69
2023/05/07 02:17:32;;;;;;;8.90;6.40;;;;;;;10.71;67.58;98665.97;5011578;28;20514;-69
2023/05/07 02:19:58;;;;;;;8.27;6.53;;;;;;;10.71;68.08;98664.03;5011373;28;20018;-69
2023/05/07 02:22:23;;;;;;;9.07;6.45;;;;;;;10.72;67.20;98667.59;5011728;28;20025;-69
2023/05/07 02:24:49;;;;;;;8.90;6.43;;;;;;;10.72;67.81;98671.16;5033352;28;20463;-69
2023/05/07 02:27:14;;;;;;;9.40;6.50;;;;;;;10.76;67.94;98663.16;5011449;28;20362;-69
2023/05/07 02:29:40;;;;;;;9.65;6.88;;;;;;;10.76;67.05;98668.63;5011868;28;20033;-69
2023/05/07 02:32:05;;;;;;;8.73;6.30;;;;;;;10.76;67.72;98663.16;5013571;28;20127;-69
2023/05/07 02:34:31;;;;;;;10.43;6.53;;;;;;;10.76;67.89;98665.91;5017272;28;20541;-69
2023/05/07 02:36:56;;;;;;;8.95;6.60;;;;;;;10.74;68.28;98668.13;5011988;28;20078;-68
2023/05/07 02:39:22;;;;;;;9.35;6.72;;;;;;;10.75;67.39;98671.69;5017852;28;20034;-69
2023/05/07 02:41:47;;;;;;;9.93;7.10;;;;;;;10.77;68.20;98674.97;4993674;28;20395;-69
2023/05/07 02:44:12;;;;;;;9.55;6.70;;;;;;;10.77;67.65;98666.72;5011256;28;20426;-69
2023/05/07 02:46:38;;;;;;;8.80;7.00;;;;;;;10.77;67.68;98667.53;5011225;28;20037;-69
2023/05/07 02:49:03;;;;;;;10.18;6.40;;;;;;;10.76;67.42;98673.31;5015832;28;20393;-70
2023/05/07 02:51:30;;;;;;;12.25;6.90;;;;;;;10.77;67.93;98678.50;5020029;28;20027;-69
2023/05/07 02:53:55;;;;;;;12.30;8.70;;;;;;;10.79;68.05;98681.78;5023400;28;20154;-69
2023/05/07 02:56:21;;;;;;;14.48;8.57;;;;;;;10.79;67.50;98675.50;4993525;28;20108;-69
2023/05/07 02:58:47;;;;;;;10.23;8.25;;;;;;;10.80;67.94;98690.84;5012680;28;20483;-69
2023/05/07 03:01:13;;;;;;;11.70;8.07;;;;;;;10.78;68.00;98687.56;5010960;28;20104;-69
2023/05/07 03:03:39;;;;;;;13.73;8.90;;;;;;;10.78;68.21;98690.31;5010813;28;20034;-70
2023/05/07 03:06:05;;;;;;;13.50;8.25;;;;;;;10.76;67.76;98689.78;5028266;28;20045;-69
2023/05/07 03:08:30;;;;;;;12.50;8.75;;;;;;;10.76;67.90;98689.78;5012799;28;20057;-69
2023/05/07 03:10:56;;;;;;;13.38;9.02;;;;;;;10.76;67.72;98692.53;5010917;28;20022;-69
2023/05/07 03:13:21;;;;;;;15.05;10.88;;;;;;;10.74;67.79;98698.28;5007002;28;20102;-70
2023/05/07 03:15:46;;;;;;;14.82;10.38;;;;;;;10.72;67.37;98693.13;5029101;28;20499;-69
2023/05/07 03:18:12;;;;;;;14.90;9.95;;;;;;;10.72;68.44;98697.75;5012818;28;20033;-69
2023/05/07 03:20:37;;;;;;;17.33;11.35;;;;;;;10.74;67.71;98706.53;5000073;28;20439;-69
2023/05/07 03:23:03;;;;;;;14.40;8.90;;;;;;;10.75;68.16;98707.34;5010876;28;20026;-69
2023/05/07 03:25:29;;;;;;;15.27;8.80;;;;;;;10.72;67.93;98712.31;4993056;28;20030;-70
2023/05/07 03:27:55;;;;;;;16.48;9.68;;;;;;;10.71;68.23;98709.84;5021409;28;20030;-69
2023/05/07 03:30:21;;;;;;;10.90;8.18;;;;;;;10.68;67.79;98713.16;5010517;28;20380;-70
2023/05/07 03:32:46;;;;;;;11.20;7.25;;;;;;;10.64;67.99;98718.44;5021524;28;20018;-70
2023/05/07 03:35:11;;;;;;;10.48;6.85;;;;;;;10.63;67.88;98722.28;5017974;28;20103;-69
2023/05/07 03:37:38;;;;;;;9.18;6.32;;;;;;;10.63;67.91;98716.78;5012285;28;20487;-69
2023/05/07 03:40:04;;;;;;;10.82;6.20;;;;;;;10.62;67.70;98712.41;5010443;28;20110;-70
2023/05/07 03:42:29;;;;;;;9.45;6.28;;;;;;;10.62;67.75;98717.06;5010500;28;20391;-69
2023/05/07 03:44:55;;;;;;;7.97;6.13;;;;;;;10.60;68.24;98714.63;5024473;28;20030;-69
2023/05/07 03:47:20;;;;;;;9.15;5.70;;;;;;;10.59;68.09;98718.47;5014673;28;20033;-69
2023/05/07 03:49:46;;;;;;;8.57;6.32;;;;;;;10.57;67.53;98720.69;5076288;28;20030;-70
2023/05/07 03:52:11;;;;;;;8.77;6.05;;;;;;;10.55;67.79;98728.38;5011425;28;20638;-70
2023/05/07 03:54:37;;;;;;;7.93;5.55;;;;;;;10.52;67.82;98734.44;5064023;28;20030;-70
2023/05/07 03:57:02;;;;;;;6.82;4.55;;;;;;;10.49;67.46;98733.13;5114769;28;20031;-70
2023/05/07 03:59:28;;;;;;;6.75;4.78;;;;;;;10.49;67.53;98735.03;5021672;28;20484;-69
2023/05/07 04:01:53;;;;;;;6.90;4.65;;;;;;;10.47;67.63;98737.25;5011098;28;20418;-70
2023/05/07 04:04:18;;;;;;;6.13;4.50;;;;;;;10.46;68.13;98741.09;4993735;28;20038;-70
2023/05/07 04:06:44;;;;;;;6.70;4.38;;;;;;;10.43;67.61;98737.00;5011410;28;20078;-69
2023/05/07 04:09:09;;;;;;;6.57;4.30;;;;;;;10.38;67.94;98737.84;5015277;28;20038;-70
2023/05/07 04:11:35;;;;;;;5.80;4.32;;;;;;;10.36;67.82;98742.81;5011115;28;20068;-69
2023/05/07 04:14:01;;;;;;;9.85;6.15;;;;;;;10.37;67.76;98752.66;5011320;28;20053;-69
2023/05/07 04:16:26;;;;;;;7.38;4.55;;;;;;;10.35;67.90;98748.56;5095279;28;20055;-69
2023/05/07 04:18:52;;;;;;;6.78;3.78;;;;;;;10.29;67.99;98761.50;5078556;28;20054;-70
2023/05/07 04:21:19;;;;;;;5.90;3.83;;;;;;;10.28;68.00;98760.66;5010790;28;20042;-69
2023/05/07 04:23:46;;;;;;;5.43;3.55;;;;;;;10.28;68.43;98766.16;5021287;28;20037;-69
2023/05/07 04:26:11;;;;;;;7.10;4.45;;;;;;;10.28;67.85;98770.84;5113033;28;20019;-69
2023/05/07 04:28:39;;;;;;;6.38;3.83;;;;;;;10.26;67.36;98773.03;5061937;28;20022;-69
2023/05/07 04:31:04;;;;;;;5.40;3.50;;;;;;;10.24;68.33;98773.31;5011042;28;20022;-69
2023/05/07 04:33:30;;;;;;;5.55;3.10;;;;;;;10.23;67.80;98784.56;5011573;28;20037;-69
2023/05/07 04:35:55;;;;;;;4.78;3.33;;;;;;;10.23;67.51;98790.06;5040705;28;20079;-69
2023/05/07 04:38:21;;;;;;;4.97;3.13;;;;;;;10.19;67.72;98789.00;5049854;28;20028;-69
2023/05/07 04:40:46;;;;;;;7.00;3.40;;;;;;;10.18;67.79;98795.56;5049252;28;20029;-69
2023/05/07 04:43:13;;;;;;;6.45;3.80;;;;;;;10.15;67.70;98793.41;5010985;28;20603;-69
2023/05/07 04:45:41;;;;;;;5.50;3.80;;;;;;;10.14;68.07;98800.81;5011142;28;20101;-69
2023/05/07 04:48:07;;;;;;;5.88;3.50;;;;;;;10.12;68.09;98809.31;5037591;28;20539;-69
2023/05/07 04:50:32;;;;;;;6.32;3.78;;;;;;;10.10;68.22;98810.72;5095568;28;20026;-69
2023/05/07 04:52:58;;;;;;;7.32;3.97;;;;;;;10.11;68.17;98813.16;4996289;28;20033;-69
2023/05/07 04:55:23;;;;;;;6.28;4.13;;;;;;;10.10;68.17;98814.25;5028886;28;20080;-70
2023/05/07 04:57:48;;;;;;;4.88;3.38;;;;;;;10.09;67.80;98817.28;5100326;28;20508;-70
2023/05/07 05:00:14;;;;;;;5.72;3.67;;;;;;;10.09;68.37;98820.84;5010615;28;20033;-69
2023/05/07 05:02:40;;;;;;;4.60;3.22;;;;;;;10.08;67.82;98810.19;5010348;28;20026;-69
2023/05/07 05:05:06;;;;;;;5.47;3.42;;;;;;;10.07;68.40;98816.75;5010207;28;20099;-69
2023/05/07 05:07:32;;;;;;;6.05;3.47;;;;;;;10.05;68.54;98824.44;5020437;28;20037;-69
2023/05/07 05:09:58;;;;;;;5.60;3.90;;;;;;;10.04;67.91;98826.34;5026616;28;20476;-68
2023/05/07 05:12:23;;;;;;;5.20;4.03;;;;;;;10.04;67.99;98820.88;5010219;28;20022;-69
2023/05/07 05:14:48;;;;;;;5.43;3.63;;;;;;;10.04;67.65;98826.34;5010521;28;20113;-68
2023/05/07 05:17:14;;;;;;;7.38;4.22;;;;;;;10.03;68.09;98840.34;5010364;28;20022;-69
2023/05/07 05:19:39;;;;;;;6.55;4.28;;;;;;;10.00;68.00;98836.22;5014249;28;20062;-69
2023/05/07 05:22:05;;;;;;;7.80;4.15;;;;;;;9.98;67.59;98838.47;4994144;28;20038;-68
2023/05/07 05:24:31;;;;;;;6.15;4.22;;;;;;;9.94;68.27;98846.41;5113651;28;20039;-69
2023/05/07 05:26:56;;;;;;;5.72;4.32;;;;;;;9.93;68.14;98841.22;5038615;28;20029;-69
2023/05/07 05:29:22;;;;;;;8.32;5.20;;;;;;;9.89;68.47;98845.63;5061996;28;20515;-70
2023/05/07 05:31:48;;;;;;;6.32;4.43;;;;;;;9.88;68.20;98850.28;5010952;28;20152;-69
2023/05/07 05:34:13;;;;;;;6.65;4.22;;;;;;;9.87;68.32;98853.31;5010237;28;20076;-69
2023/05/07 05:36:38;;;;;;;7.70;4.85;;;;;;;9.86;68.21;98860.69;5009784;28;20030;-69
2023/05/07 05:39:04;;;;;;;5.75;4.35;;;;;;;9.83;67.77;98855.78;5095973;28;20046;-69
2023/05/07 05:41:30;;;;;;;7.28;5.00;;;;;;;9.75;67.82;98857.19;5013641;28;20034;-69
2023/05/07 05:43:55;;;;;;;6.55;4.68;;;;;;;9.75;68.19;98856.38;5031562;28;20024;-69
2023/05/07 05:46:21;;;;;;;7.05;5.22;;;;;;;9.73;67.99;98858.59;5117420;28;20072;-69
2023/05/07 05:48:46;;;;;;;8.93;5.30;;;;;;;9.72;68.17;98867.91;5031860;28;20026;-69
2023/05/07 05:51:12;;;;;;;6.85;4.50;;;;;;;9.68;68.54;98862.16;5013081;28;20032;-69
2023/05/07 05:53:37;;;;;;;6.28;4.65;;;;;;;9.66;68.77;98858.88;5013051;28;20021;-69
2023/05/07 05:56:03;;;;;;;7.63;4.93;;;;;;;9.66;68.97;98864.34;5012407;28;20420;-69
2023/05/07 05:58:28;;;;;;;7.60;5.32;;;;;;;9.67;68.26;98875.03;5013003;28;20026;-69
2023/05/07 06:00:54;;;;;;;7.70;5.40;;;;;;;9.67;68.82;98869.56;5012056;28;20088;-68
2023/05/07 06:03:19;;;;;;;8.85;5.18;;;;;;;9.66;68.27;98870.66;5012237;28;20521;-73
2023/05/07 06:05:45;;;;;;;7.70;4.82;;;;;;;9.68;68.92;98870.38;5010324;28;20038;-72
2023/05/07 06:08:10;;;;;;;5.78;4.53;;;;;;;9.68;68.10;98873.09;5020225;28;20023;-72
2023/05/07 06:10:37;;;;;;;5.55;4.85;;;;;;;9.67;68.65;98869.56;5013003;28;20057;-72
2023/05/07 06:13:02;;;;;;;6.70;4.63;;;;;;;9.70;68.56;98875.59;5012067;28;20034;-72
2023/05/07 06:15:27;;;;;;;7.30;5.30;;;;;;;9.67;68.51;98876.94;5011145;28;20032;-70
2023/05/07 06:17:53;;;;;;;6.63;4.95;;;;;;;9.66;68.51;98880.78;5011114;28;20413;-70
2023/05/07 06:20:18;;;;;;;7.20;5.40;;;;;;;9.65;68.16;98877.25;5011307;28;20049;-70
2023/05/07 06:22:44;;;;;;;8.27;5.50;;;;;;;9.65;68.14;98882.72;5002814;28;20058;-70
2023/05/07 06:25:09;;;;;;;7.15;5.95;;;;;;;9.66;68.46;98881.63;5012770;28;20030;-71
2023/05/07 06:27:35;;;;;;;8.38;5.20;;;;;;;9.67;68.11;98890.63;5010692;28;20142;-71
2023/05/07 06:30:00;;;;;;;6.85;5.05;;;;;;;9.67;68.50;98883.25;5019157;28;20061;-70
2023/05/07 06:32:26;;;;;;;7.70;4.43;;;;;;;9.67;68.87;98882.44;5015718;28;20046;-70
2023/05/07 06:34:51;;;;;;;7.80;4.88;;;;;;;9.68;67.93;98886.81;5011194;28;20087;-70
2023/05/07 06:37:16;;;;;;;7.15;4.85;;;;;;;9.70;67.90;98895.56;5011319;28;20079;-71
2023/05/07 06:39:42;;;;;;;7.55;4.43;;;;;;;9.71;68.73;98894.47;5011474;28;20121;-70
2023/05/07 06:42:07;;;;;;;8.43;5.38;;;;;;;9.74;68.18;98891.16;5011476;28;20021;-69
2023/05/07 06:44:32;;;;;;;6.28;4.40;;;;;;;9.78;68.67;98899.66;4993438;28;20054;-69
2023/05/07 06:46:58;;;;;;;6.03;4.82;;;;;;;9.78;67.71;98897.72;5010641;28;20037;-69
2023/05/07 06:49:23;;;;;;;5.90;4.63;;;;;;;9.72;68.37;98903.50;5010715;28;20061;-71
2023/05/07 06:51:49;;;;;;;5.47;3.78;;;;;;;9.67;67.97;98904.34;5020076;28;20017;-71
2023/05/07 06:54:15;;;;;;;5.82;4.68;;;;;;;9.62;67.69;98910.66;5010057;28;20122;-71
2023/05/07 06:56:40;;;;;;;8.60;5.13;;;;;;;9.60;68.12;98917.50;5010917;28;20490;-70
2023/05/07 06:59:06;;;;;;;7.35;5.10;;;;;;;9.59;68.30;98913.13;5007804;28;20468;-71
2023/05/07 07:01:32;;;;;;;6.43;4.85;;;;;;;9.58;67.98;98916.97;5028652;28;20026;-72
2023/05/07 07:03:57;;;;;;;5.65;4.70;;;;;;;9.58;67.59;98925.19;5010323;28;20076;-71
2023/05/07 07:06:22;;;;;;;6.03;4.80;;;;;;;9.56;67.92;98921.91;5010670;28;20033;-72
2023/05/07 07:08:48;;;;;;;8.77;5.55;;;;;;;9.54;67.97;98933.13;5011141;28;20074;-72
2023/05/07 07:11:13;;;;;;;7.15;5.25;;;;;;;9.51;67.83;98929.03;5015251;28;20052;-72
2023/05/07 07:13:40;;;;;;;4.93;4.10;;;;;;;9.48;67.88;98937.81;4990098;28;20030;-71
2023/05/07 07:16:05;;;;;;;7.28;5.13;;;;;;;9.47;67.70;98944.38;5010042;28;20030;-71
2023/05/07 07:18:30;;;;;;;5.95;4.75;;;;;;;9.47;67.74;98941.66;5010197;28;20037;-71
2023/05/07 07:20:56;;;;;;;7.65;5.13;;;;;;;9.47;67.81;98941.66;5013469;28;20110;-71
2023/05/07 07:23:21;;;;;;;5.35;4.13;;;;;;;9.46;67.95;98944.66;5010976;28;20113;-71
2023/05/07 07:25:47;;;;;;;5.93;4.88;;;;;;;9.45;67.63;98949.31;5009931;28;20079;-72
2023/05/07 07:28:13;;;;;;;8.50;5.35;;;;;;;9.45;68.12;98960.25;5019093;28;20046;-71
2023/05/07 07:30:39;;;;;;;5.65;4.40;;;;;;;9.45;67.78;98953.94;5058787;28;20023;-70
2023/05/07 07:33:05;;;;;;;5.10;4.25;;;;;;;9.45;68.13;98952.06;5010559;28;20053;-71
2023/05/07 07:35:31;;;;;;;6.03;3.90;;;;;;;9.46;68.08;98961.91;5009371;28;20492;-72
2023/05/07 07:37:57;;;;;;;5.00;4.00;;;;;;;9.47;68.09;98960.81;5008847;28;20034;-69
2023/05/07 07:40:22;;;;;;;4.70;3.92;;;;;;;9.49;67.61;98964.09;5020583;28;20037;-69
2023/05/07 07:42:48;;;;;;;5.35;3.90;;;;;;;9.52;68.06;98965.44;5009357;28;20033;-69
2023/05/07 07:45:13;;;;;;;5.68;4.63;;;;;;;9.49;67.74;98977.78;4991490;28;20026;-70
2023/05/07 07:47:42;;;;;;;5.03;4.53;;;;;;;9.49;67.41;98976.94;5009817;28;20033;-69
2023/05/07 07:50:08;;;;;;;6.05;4.53;;;;;;;9.51;67.63;98964.63;5033926;28;20020;-70
2023/05/07 07:52:33;;;;;;;4.82;3.80;;;;;;;9.54;67.71;98971.47;5099199;28;20028;-70
2023/05/07 07:55:01;;;;;;;4.68;4.10;;;;;;;9.55;67.41;98969.56;5016139;28;20030;-70
2023/05/07 07:57:27;;;;;;;5.80;4.43;;;;;;;9.54;67.84;98971.47;5009698;28;20532;-70
2023/05/07 07:59:52;;;;;;;5.00;4.40;;;;;;;9.58;67.60;98982.72;5032107;28;20039;-73
2023/05/07 08:02:17;;;;;;;7.30;4.40;;;;;;;9.58;68.12;98983.50;5101706;28;20027;-69
2023/05/07 08:04:43;;;;;;;6.80;4.75;;;;;;;9.55;67.40;98984.06;5075785;28;20061;-68
2023/05/07 08:07:11;;;;;;;6.60;5.20;;;;;;;9.60;67.82;98983.22;5008961;28;20476;-68
2023/05/07 08:09:38;;;;;;;6.18;4.47;;;;;;;9.61;67.71;98979.38;5009096;28;20083;-69
2023/05/07 08:12:05;;;;;;;8.18;5.13;;;;;;;9.63;67.28;98980.75;5027886;28;20030;-69
2023/05/07 08:14:30;;;;;;;4.38;3.97;;;;;;;9.68;67.45;98979.91;5037935;28;20022;-69
2023/05/07 08:16:55;;;;;;;9.38;5.85;;;;;;;9.70;67.51;98985.13;5086249;28;20395;-68
2023/05/07 08:19:21;;;;;;;5.05;4.20;;;;;;;9.74;67.84;98986.22;5022770;28;20388;-69
2023/05/07 08:21:47;;;;;;;5.53;4.63;;;;;;;9.80;67.91;98993.31;5076723;28;20020;-68
2023/05/07 08:24:14;;;;;;;6.18;4.60;;;;;;;9.83;67.67;98992.75;5098370;28;20545;-68
2023/05/07 08:26:39;;;;;;;6.18;5.25;;;;;;;9.83;67.03;98999.06;5103695;28;20046;-68
2023/05/07 08:29:05;;;;;;;5.97;4.40;;;;;;;9.82;67.27;98999.34;5039010;28;20057;-68
2023/05/07 08:31:30;;;;;;;5.93;4.60;;;;;;;9.82;66.89;98997.44;5016704;28;20025;-68
2023/05/07 08:33:57;;;;;;;6.63;4.90;;;;;;;9.81;66.83;99003.16;5018807;28;20397;-68
2023/05/07 08:36:23;;;;;;;5.25;3.90;;;;;;;9.86;67.38;99003.16;5007347;28;20033;-69
2023/05/07 08:38:49;;;;;;;4.00;3.60;;;;;;;9.92;66.71;98999.31;5009170;28;20390;-68
2023/05/07 08:41:15;;;;;;;6.18;3.65;;;;;;;9.99;66.61;99007.22;4990388;28;20030;-68
2023/05/07 08:43:41;;;;;;;6.18;4.03;;;;;;;10.02;66.50;99011.34;5008358;28;20026;-70
2023/05/07 08:46:10;;;;;;;5.28;3.88;;;;;;;10.06;66.63;99013.25;5011148;28;20049;-69
2023/05/07 08:48:36;;;;;;;7.97;6.32;;;;;;;10.13;66.51;99019.25;5016155;28;20022;-69
2023/05/07 08:51:01;;;;;;;8.75;6.88;;;;;;;10.20;66.40;99018.94;5007221;28;20022;-68
2023/05/07 08:53:27;;;;;;;5.35;4.32;;;;;;;10.24;66.71;99011.81;4991638;28;20026;-69
2023/05/07 08:55:53;;;;;;;7.88;4.35;;;;;;;10.27;66.28;99019.47;5007236;28;20030;-68
2023/05/07 08:58:19;;;;;;;7.20;5.13;;;;;;;10.31;66.36;99021.66;5007064;28;20033;-69
2023/05/07 09:00:44;;;;;;;6.65;4.63;;;;;;;10.34;66.37;99026.56;5007469;28;20034;-69
2023/05/07 09:03:13;;;;;;;5.63;4.53;;;;;;;10.32;65.44;99015.91;5007520;28;20436;-69
2023/05/07 09:05:39;;;;;;;6.43;3.97;;;;;;;10.28;65.68;99018.38;5006873;28;20045;-71
2023/05/07 09:08:06;;;;;;;5.10;3.83;;;;;;;10.28;65.25;99026.59;5017860;28;20094;-70
2023/05/07 09:10:33;;;;;;;5.50;3.92;;;;;;;10.26;65.63;99030.72;5006870;28;20116;-70
2023/05/07 09:12:59;;;;;;;5.93;3.97;;;;;;;10.26;65.24;99027.97;5006896;28;20036;-70
2023/05/07 09:15:25;;;;;;;4.75;4.05;;;;;;;10.24;65.47;99035.66;5007094;28;20033;-70
2023/05/07 09:17:50;;;;;;;5.25;3.63;;;;;;;10.23;65.13;99036.78;5006938;28;20028;-69
2023/05/07 09:20:16;;;;;;;4.85;3.83;;;;;;;10.24;65.28;99035.66;5006931;28;20033;-70
2023/05/07 09:22:42;;;;;;;4.15;3.00;;;;;;;10.23;64.80;99037.56;5006732;28;20022;-70
2023/05/07 09:25:09;;;;;;;3.95;3.25;;;;;;;10.24;65.48;99041.97;5006956;28;20025;-69
2023/05/07 09:27:34;;;;;;;3.90;3.50;;;;;;;10.25;64.96;99051.81;5016356;28;20109;-68
2023/05/07 09:30:03;;;;;;;3.53;3.22;;;;;;;10.21;65.18;99047.19;5057593;28;20106;-72
2023/05/07 09:32:30;;;;;;;5.07;4.10;;;;;;;10.17;65.18;99038.72;5050068;28;20024;-74
2023/05/07 09:34:55;;;;;;;4.32;3.30;;;;;;;10.13;64.97;99051.34;5003903;28;20052;-73
2023/05/07 09:37:21;;;;;;;4.18;3.63;;;;;;;10.13;64.96;99052.13;5006972;28;20022;-73
2023/05/07 09:39:49;;;;;;;5.10;3.97;;;;;;;10.18;65.39;99058.72;5007576;28;20121;-73
2023/05/07 09:42:15;;;;;;;4.47;3.83;;;;;;;10.20;64.59;99053.78;5010400;28;20065;-73
2023/05/07 09:44:41;;;;;;;6.53;4.90;;;;;;;10.25;65.01;99060.03;4999938;28;20456;-73
2023/05/07 09:47:07;;;;;;;5.65;4.80;;;;;;;10.28;64.38;99056.75;5007964;28;20022;-73
2023/05/07 09:49:37;;;;;;;5.57;4.32;;;;;;;10.33;64.87;99061.41;5023994;28;20034;-73
2023/05/07 09:52:11;;;;;;;6.78;5.55;;;;;;;10.35;65.20;99059.22;5008688;28;20041;-74
2023/05/07 09:54:40;;;;;;;5.63;4.68;;;;;;;10.38;64.46;99063.31;5007434;28;20029;-73
2023/05/07 09:57:07;;;;;;;5.63;5.00;;;;;;;10.40;64.31;99061.94;5007975;28;20136;-73
2023/05/07 09:59:33;;;;;;;8.45;5.60;;;;;;;10.45;65.07;99058.38;4988721;28;20083;-73
2023/05/07 10:02:00;;;;;;;7.32;5.80;;;;;;;10.50;65.44;99068.50;5008172;28;20022;-73
2023/05/07 10:04:26;;;;;;;5.40;3.80;;;;;;;10.53;64.15;99076.16;5008350;28;20134;-73
2023/05/07 10:06:53;;;;;;;5.63;3.60;;;;;;;10.51;63.75;99073.72;5008180;28;20033;-72
2023/05/07 10:09:20;;;;;;;6.88;3.80;;;;;;;10.52;64.37;99077.25;5008054;28;20030;-70
2023/05/07 10:11:45;;;;;;;4.25;3.50;;;;;;;10.51;63.87;99083.84;5007917;28;20022;-72
2023/05/07 10:14:11;;;;;;;3.97;3.10;;;;;;;10.49;63.79;99077.81;5007215;28;20147;-72
2023/05/07 10:16:36;;;;;;;4.38;3.33;;;;;;;10.46;64.42;99087.44;4989079;28;20022;-72
2023/05/07 10:19:06;;;;;;;3.85;3.05;;;;;;;10.46;64.06;99081.97;5007347;28;20483;-72
2023/05/07 10:21:37;;;;;;;4.65;3.47;;;;;;;10.46;63.55;99092.94;4989006;28;20384;-72
2023/05/07 10:24:13;;;;;;;4.22;3.83;;;;;;;10.49;64.31;99099.75;5007357;28;20029;-72
2023/05/07 10:26:42;;;;;;;4.15;3.10;;;;;;;10.51;63.73;99094.81;5009906;28;20026;-72
2023/05/07 10:29:24;;;;;;;3.55;3.17;;;;;;;10.55;64.64;99095.91;5010111;28;20048;-72
2023/05/07 10:31:56;;;;;;;5.53;3.90;;;;;;;10.55;63.87;99094.00;5006129;28;20020;-71
2023/05/07 10:34:27;;;;;;;6.40;4.30;;;;;;;10.58;64.49;99087.13;5018689;28;20022;-71
2023/05/07 10:36:56;;;;;;;6.90;5.55;;;;;;;10.63;63.92;99089.00;5011924;28;20057;-71
2023/05/07 10:39:22;;;;;;;7.35;5.80;;;;;;;10.64;63.52;99093.38;5009835;28;20082;-72
2023/05/07 10:41:48;;;;;;;7.05;5.38;;;;;;;10.66;64.02;99096.66;5009322;28;20021;-71
2023/05/07 10:44:29;;;;;;;8.05;5.50;;;;;;;10.68;63.90;99098.06;4991550;28;20025;-72
2023/05/07 10:47:08;;;;;;;6.38;4.72;;;;;;;10.69;63.74;99102.44;4999359;28;20027;-72
2023/05/07 10:49:34;;;;;;;5.80;4.13;;;;;;;10.68;63.12;99099.97;5009280;28;20037;-71
2023/05/07 10:52:15;;;;;;;6.10;4.90;;;;;;;10.64;63.51;99105.19;5009256;28;20061;-72
2023/05/07 10:54:43;;;;;;;6.60;5.00;;;;;;;10.61;63.33;99102.16;5009292;28;20026;-72
2023/05/07 10:57:35;;;;;;;5.57;5.07;;;;;;;10.61;63.75;99111.25;4992373;28;20018;-73
2023/05/07 11:00:01;;;;;;;5.38;4.78;;;;;;;10.63;63.30;99119.19;5018156;28;20498;-72
2023/05/07 11:02:58;;;;;;;6.10;5.07;;;;;;;10.63;63.41;99109.03;5018520;28;20038;-73
2023/05/07 11:05:24;;;;;;;4.90;4.50;;;;;;;10.65;63.40;99116.97;5035600;28;20110;-73
2023/05/07 11:07:58;;;;;;;5.95;4.40;;;;;;;10.66;62.83;99111.22;5010937;28;20112;-73
2023/05/07 11:10:43;;;;;;;5.00;4.30;;;;;;;10.66;62.93;99118.63;5011369;28;20041;-72
2023/05/07 11:13:08;;;;;;;4.57;3.38;;;;;;;10.66;63.04;99111.22;5010826;28;20063;-72
2023/05/07 11:15:37;;;;;;;4.68;3.65;;;;;;;10.63;62.61;99114.53;4993157;28;20053;-72
2023/05/07 11:18:03;;;;;;;4.40;4.00;;;;;;;10.62;63.27;99112.03;5010894;28;20033;-72
2023/05/07 11:20:52;;;;;;;4.97;4.32;;;;;;;10.57;62.26;99119.22;4993521;28;20376;-73
2023/05/07 11:23:33;;;;;;;7.00;4.50;;;;;;;10.55;62.19;99118.69;5010552;28;20034;-72
2023/05/07 11:26:06;;;;;;;4.55;3.80;;;;;;;10.55;62.61;99129.66;5009708;28;20038;-70
2023/05/07 11:28:40;;;;;;;5.85;3.80;;;;;;;10.54;62.39;99129.91;5010632;28;20029;-70
2023/05/07 11:31:06;;;;;;;5.47;4.03;;;;;;;10.53;62.46;99139.25;5009319;28;20597;-70